This is the latest recevied weather packets stored in our database for station/object KR4BRU. If no packets are shown the sender has not sent any weather packets the latest 1 day(s).
| Time | Temp. | Humidity | Pressure | Rain* | Wind** | Luminosity | Snow |
|---|---|---|---|---|---|---|---|
| 1778035902 | 23.89° C | 44% | 1008.7 hPa | 0 mm | - | 0 W/m² | - |
| 1778035302 | 23.89° C | 45% | 1008.7 hPa | 0 mm | - | 0 W/m² | - |
| 1778034701 | 23.89° C | 45% | 1008.3 hPa | 0 mm | - | 0 W/m² | - |
| 1778034101 | 23.33° C | 45% | 1008.2 hPa | 0 mm | - | 0 W/m² | - |
| 1778033496 | 23.33° C | 45% | 1008 hPa | 0 mm | - | 0 W/m² | - |
| 1778032297 | 23.33° C | 45% | 1008 hPa | 0 mm | - | 0 W/m² | - |
| 1778031696 | 23.33° C | 45% | 1007.9 hPa | 0 mm | - | 0 W/m² | - |
| 1778031091 | 23.33° C | 45% | 1007.7 hPa | 0 mm | - | 0 W/m² | - |
| 1778030490 | 23.33° C | 44% | 1007.6 hPa | 0 mm | - | 0 W/m² | - |
| 1778029889 | 22.78° C | 48% | 1007.7 hPa | 0 mm | - | 0 W/m² | - |
| 1778029285 | 22.22° C | 48% | 1007.4 hPa | 0 mm | - | 0 W/m² | - |
| 1778028684 | 21.67° C | 54% | 1007.5 hPa | 0 mm | - | 0 W/m² | - |
| 1778028084 | 21.67° C | 53% | 1007.5 hPa | 0 mm | - | 0 W/m² | - |
| 1778026279 | 22.78° C | 52% | 1007.8 hPa | 0 mm | - | 5 W/m² | - |
| 1778023275 | 23.89° C | 43% | 1007.8 hPa | 0 mm | - | 45 W/m² | - |
| 1778021468 | 23.33° C | 43% | 1007.5 hPa | 0 mm | - | 58 W/m² | - |
| 1778020868 | 23.89° C | 41% | 1007.7 hPa | 0 mm | - | 36 W/m² | - |
| 1778020267 | 23.89° C | 39% | 1007.8 hPa | 0 mm | - | 29 W/m² | - |
| 1778018460 | 24.44° C | 36% | 1007.9 hPa | 0 mm | - | 56 W/m² | - |
| 1778017256 | 24.44° C | 36% | 1007.8 hPa | 0 mm | - | 93 W/m² | - |
| 1778014855 | 26.11° C | 30% | 1008.3 hPa | 0 mm | - | 121 W/m² | - |
* Rain latest hour (hover to see other rain measurements)
** Current wind speed in m/s (hover to see current wind gust speed)